EWG25B LOWS-EDDL
Flight info
| Callsign | EWG25B |
|---|---|
| Flight time | N/A |
| Altitude | 38000 |
| Route | INROM DCT SIMBA Y700 NENUM DCT EPTEU L604 MOOCE DCT TESDU DCT AMETU T852 EKSAK/N0373F260 T852 KULIX/N0362F240 T852 TINSA T854 DOMUX DOMUX23 |
| Aircraft | A320/M-SDE3FGHIRWY/LB1 |
Departure
| Time | 2026-05-04 16:13 |
|---|---|
| Airport | Salzburg Airport (LOWS) |
Arrival
| Time | N/A |
|---|---|
| Airport | Düsseldorf Airport (EDDL) |
| Time | Latitude | Longitude | Altitude | Speed | Heading |
|---|---|---|---|---|---|
| 2026-05-04 16:02 | 47.79018 | 13.00219 | 1422 ft | 0 kts | 102° |
| 2026-05-04 16:08 | 47.79016 | 13.00221 | 1422 ft | 1 kts | 123° |
| 2026-05-04 16:08 | 47.78864 | 13.00420 | 1420 ft | 15 kts | 155° |
| 2026-05-04 16:09 | 47.78701 | 13.00526 | 1421 ft | 11 kts | 157° |
| 2026-05-04 16:09 | 47.78575 | 13.00606 | 1422 ft | 12 kts | 157° |
| 2026-05-04 16:10 | 47.78397 | 13.00718 | 1421 ft | 13 kts | 157° |
| 2026-05-04 16:11 | 47.78198 | 13.00876 | 1420 ft | 10 kts | 122° |
| 2026-05-04 16:11 | 47.78182 | 13.00984 | 1417 ft | 12 kts | 78° |
| 2026-05-04 16:12 | 47.78281 | 13.01060 | 1417 ft | 0 kts | 342° |
| 2026-05-04 16:12 | 47.78452 | 13.00951 | 1419 ft | 62 kts | 336° |
| 2026-05-04 16:13 | 47.80015 | 12.99968 | 1589 ft | 159 kts | 337° |
| 2026-05-04 16:13 | 47.82080 | 12.98879 | 2788 ft | 172 kts | 4° |
| 2026-05-04 16:14 | 47.84366 | 13.00657 | 3534 ft | 210 kts | 38° |
| 2026-05-04 16:14 | 47.86959 | 13.03556 | 4529 ft | 257 kts | 37° |
| 2026-05-04 16:15 | 47.91570 | 13.08519 | 7030 ft | 283 kts | 37° |
| 2026-05-04 16:16 | 47.95137 | 13.11128 | 8669 ft | 296 kts | 3° |
| 2026-05-04 16:16 | 48.01269 | 13.08890 | 10563 ft | 332 kts | 347° |
| 2026-05-04 16:17 | 48.05936 | 13.07620 | 10910 ft | 343 kts | 347° |
| 2026-05-04 16:18 | 48.12988 | 13.05741 | 10905 ft | 343 kts | 348° |
| 2026-05-04 16:18 | 48.15339 | 13.05122 | 10906 ft | 343 kts | 347° |
| 2026-05-04 16:19 | 48.22389 | 13.03234 | 10907 ft | 343 kts | 347° |
| 2026-05-04 16:19 | 48.27093 | 13.01966 | 10916 ft | 343 kts | 347° |
| 2026-05-04 16:20 | 48.34143 | 13.00078 | 10918 ft | 343 kts | 347° |
| 2026-05-04 16:20 | 48.38855 | 12.98806 | 12061 ft | 342 kts | 348° |
| 2026-05-04 16:21 | 48.45933 | 12.96910 | 14567 ft | 350 kts | 348° |
| 2026-05-04 16:22 | 48.50778 | 12.95614 | 15966 ft | 357 kts | 348° |
| 2026-05-04 16:22 | 48.58246 | 12.93734 | 18015 ft | 369 kts | 349° |
| 2026-05-04 16:23 | 48.65084 | 12.92308 | 19670 ft | 376 kts | 349° |
| 2026-05-04 16:24 | 48.75573 | 12.90042 | 22092 ft | 385 kts | 349° |
| 2026-05-04 16:25 | 48.80922 | 12.88864 | 23262 ft | 391 kts | 348° |
| 2026-05-04 16:26 | 48.91793 | 12.86469 | 25199 ft | 400 kts | 348° |
| 2026-05-04 16:26 | 49.00093 | 12.84637 | 26544 ft | 407 kts | 348° |
| 2026-05-04 16:27 | 49.05731 | 12.83389 | 27426 ft | 411 kts | 348° |
| 2026-05-04 16:28 | 49.14055 | 12.80920 | 29068 ft | 404 kts | 335° |
| 2026-05-04 16:28 | 49.20907 | 12.73828 | 30224 ft | 400 kts | 311° |
| 2026-05-04 16:29 | 49.28462 | 12.61149 | 31617 ft | 405 kts | 300° |
| 2026-05-04 16:30 | 49.33231 | 12.50055 | 32036 ft | 425 kts | 301° |